Time;durP1;ratioP1;P1;durP2;ratioP2;P2;SDS_P1;SDS_P2;PMS_P1;PMS_P2;Temp;Humidity;BMP_temperature;BMP_pressure;BME280_temperature;BME280_humidity;BME280_pressure;Samples;Min_cycle;Max_cycle;Signal;HPM_P1;HPM_P2
2023/07/01 00:00:29;;;;;;;16.53;10.83;;;24.00;52.20;;;;;;5032118;28;20654;-57
2023/07/01 00:02:55;;;;;;;16.90;10.50;;;24.10;52.30;;;;;;5032362;28;20174;-55
2023/07/01 00:05:20;;;;;;;12.37;10.40;;;24.10;52.30;;;;;;5032052;28;20209;-56
2023/07/01 00:07:48;;;;;;;17.10;11.00;;;24.00;52.20;;;;;;5031951;28;20232;-56
2023/07/01 00:10:14;;;;;;;12.30;9.97;;;24.10;52.20;;;;;;5030487;28;20208;-57
2023/07/01 00:12:40;;;;;;;12.97;11.07;;;24.00;52.30;;;;;;5032368;28;20498;-55
2023/07/01 00:15:06;;;;;;;15.13;10.80;;;24.00;53.10;;;;;;5032176;28;20657;-57
2023/07/01 00:17:32;;;;;;;11.90;10.70;;;24.00;52.30;;;;;;5032121;28;20408;-57
2023/07/01 00:19:58;;;;;;;12.70;9.77;;;24.10;52.30;;;;;;5031813;28;20432;-58
2023/07/01 00:22:23;;;;;;;14.03;10.73;;;24.00;52.30;;;;;;5032140;28;20885;-57
2023/07/01 00:24:49;;;;;;;20.37;11.30;;;24.00;52.00;;;;;;5032092;28;20703;-58
2023/07/01 00:27:15;;;;;;;12.33;10.90;;;24.00;52.10;;;;;;5032071;28;20178;-58
2023/07/01 00:29:42;;;;;;;13.70;10.67;;;23.90;51.90;;;;;;5031625;28;21831;-55
2023/07/01 00:32:09;;;;;;;17.80;10.60;;;23.90;52.20;;;;;;5032119;28;20197;-55
2023/07/01 00:34:35;;;;;;;15.60;9.93;;;23.90;52.20;;;;;;5031745;28;20938;-57
2023/07/01 00:37:01;;;;;;;15.40;11.17;;;23.90;52.10;;;;;;5032202;28;20511;-58
2023/07/01 00:39:27;;;;;;;16.27;11.10;;;23.90;52.30;;;;;;5031799;28;20170;-56
2023/07/01 00:41:53;;;;;;;12.07;10.87;;;23.90;52.40;;;;;;5031967;28;20405;-58
2023/07/01 00:44:20;;;;;;;12.60;10.40;;;23.90;52.30;;;;;;5031853;28;20780;-56
2023/07/01 00:46:46;;;;;;;16.00;10.07;;;23.90;52.20;;;;;;5031876;28;20409;-55
2023/07/01 00:49:12;;;;;;;12.97;8.80;;;23.90;52.10;;;;;;5031596;28;20413;-56
2023/07/01 00:51:38;;;;;;;16.17;10.60;;;23.90;51.90;;;;;;5031749;28;20257;-56
2023/07/01 00:54:04;;;;;;;13.50;10.57;;;23.80;51.90;;;;;;5031725;28;20170;-54
2023/07/01 00:56:30;;;;;;;13.20;9.90;;;23.80;52.00;;;;;;5031852;28;20544;-56
2023/07/01 00:58:56;;;;;;;11.27;10.07;;;23.80;52.20;;;;;;5031859;28;20438;-56
2023/07/01 01:01:29;;;;;;;11.77;9.40;;;23.80;52.30;;;;;;5031449;28;20861;-56
2023/07/01 01:04:09;;;;;;;15.33;9.73;;;23.80;52.00;;;;;;5031651;28;20583;-56
2023/07/01 01:06:45;;;;;;;12.37;9.30;;;23.80;52.10;;;;;;5031792;28;20414;-57
2023/07/01 01:09:33;;;;;;;12.50;10.13;;;23.80;52.00;;;;;;5031579;28;20776;-57
2023/07/01 01:12:01;;;;;;;9.87;8.43;;;23.80;51.60;;;;;;5031887;28;20826;-57
2023/07/01 01:14:28;;;;;;;11.60;10.03;;;23.80;51.90;;;;;;5030327;28;20504;-55
2023/07/01 01:16:56;;;;;;;11.10;9.23;;;23.70;52.10;;;;;;5031645;28;20419;-55
2023/07/01 01:19:39;;;;;;;12.63;9.50;;;23.70;52.10;;;;;;5035095;28;20400;-57
2023/07/01 01:22:05;;;;;;;11.80;8.67;;;23.80;52.10;;;;;;5034063;28;20913;-57
2023/07/01 01:24:37;;;;;;;14.33;10.07;;;23.70;52.00;;;;;;5035153;28;20448;-54
2023/07/01 01:27:05;;;;;;;15.60;9.87;;;23.80;51.90;;;;;;5035395;28;20420;-55
2023/07/01 01:29:31;;;;;;;13.20;9.73;;;23.80;52.00;;;;;;5034774;28;20413;-57
2023/07/01 01:31:56;;;;;;;12.73;9.30;;;23.80;52.00;;;;;;5035051;28;20443;-57
2023/07/01 01:34:22;;;;;;;10.60;8.13;;;23.80;52.50;;;;;;5034931;28;20224;-56
2023/07/01 01:36:52;;;;;;;10.70;9.10;;;23.80;51.70;;;;;;5034914;28;20178;-57
2023/07/01 01:39:25;;;;;;;14.80;9.20;;;23.80;51.80;;;;;;5035057;28;20178;-57
2023/07/01 01:42:16;;;;;;;12.73;9.03;;;23.80;51.90;;;;;;5035176;28;20409;-54
2023/07/01 01:44:47;;;;;;;13.20;9.03;;;23.70;51.50;;;;;;5034949;28;20467;-55
2023/07/01 01:47:18;;;;;;;17.80;9.73;;;23.70;51.80;;;;;;5034779;28;20769;-58
2023/07/01 01:49:45;;;;;;;14.00;9.10;;;23.70;51.80;;;;;;5034574;28;20441;-55
2023/07/01 01:52:15;;;;;;;11.03;8.80;;;23.70;51.80;;;;;;5034996;28;20500;-54
2023/07/01 01:54:45;;;;;;;11.83;8.10;;;23.70;51.60;;;;;;5034936;28;20487;-58
2023/07/01 01:57:11;;;;;;;10.47;9.40;;;23.70;51.50;;;;;;5034712;28;20970;-55
2023/07/01 01:59:37;;;;;;;12.63;9.47;;;23.60;51.50;;;;;;5034364;28;20417;-55
2023/07/01 02:02:03;;;;;;;14.93;9.10;;;23.60;51.60;;;;;;5034790;28;20401;-59
2023/07/01 02:04:28;;;;;;;16.57;8.40;;;23.70;51.70;;;;;;5034403;28;20178;-58
2023/07/01 02:06:54;;;;;;;13.23;8.33;;;23.70;51.90;;;;;;5034631;28;20408;-57
2023/07/01 02:09:20;;;;;;;14.63;8.53;;;23.60;51.60;;;;;;5034309;28;20174;-56
2023/07/01 02:11:46;;;;;;;13.23;8.47;;;23.70;51.60;;;;;;5034418;28;20288;-57
2023/07/01 02:14:11;;;;;;;15.80;8.10;;;23.60;51.60;;;;;;5034375;28;20236;-57
2023/07/01 02:16:38;;;;;;;19.03;9.70;;;23.70;51.70;;;;;;5034165;28;20237;-56
2023/07/01 02:19:06;;;;;;;17.40;9.27;;;23.70;51.70;;;;;;5034445;28;20174;-55
2023/07/01 02:21:32;;;;;;;13.63;8.60;;;23.70;51.80;;;;;;5034023;28;20924;-59
2023/07/01 02:23:58;;;;;;;14.97;8.70;;;23.70;51.70;;;;;;5034247;28;20404;-55
2023/07/01 02:26:24;;;;;;;18.33;10.07;;;23.70;51.60;;;;;;5034287;28;20954;-56
2023/07/01 02:28:51;;;;;;;15.20;9.13;;;23.60;51.60;;;;;;5033405;28;20478;-58
2023/07/01 02:31:18;;;;;;;15.63;9.43;;;23.60;51.70;;;;;;5033616;28;20452;-54
2023/07/01 02:33:49;;;;;;;10.67;8.80;;;23.60;51.50;;;;;;5034149;28;20420;-56
2023/07/01 02:36:15;;;;;;;13.20;9.57;;;23.60;51.40;;;;;;5034075;28;20460;-56
2023/07/01 02:38:41;;;;;;;12.30;9.37;;;23.50;51.40;;;;;;5033987;28;20908;-55
2023/07/01 02:41:09;;;;;;;13.40;9.80;;;23.50;51.50;;;;;;5033868;28;20186;-57
2023/07/01 02:43:35;;;;;;;15.03;10.20;;;23.50;51.50;;;;;;5033715;28;20174;-58
2023/07/01 02:46:01;;;;;;;12.90;10.07;;;23.50;51.50;;;;;;5033970;28;20789;-58
2023/07/01 02:48:27;;;;;;;14.50;9.60;;;23.50;51.60;;;;;;5033927;28;20413;-55
2023/07/01 02:50:52;;;;;;;15.23;10.30;;;23.50;51.70;;;;;;5033400;28;20194;-58
2023/07/01 02:53:19;;;;;;;11.30;8.97;;;23.50;51.80;;;;;;5033651;28;20179;-58
2023/07/01 02:55:45;;;;;;;13.27;10.80;;;23.50;51.60;;;;;;5033566;28;20197;-58
2023/07/01 02:58:11;;;;;;;15.60;10.87;;;23.50;51.50;;;;;;5033404;28;20401;-55
2023/07/01 03:00:37;;;;;;;13.00;10.30;;;23.50;51.50;;;;;;5031948;28;20491;-58
2023/07/01 03:03:08;;;;;;;13.10;9.07;;;23.50;51.50;;;;;;5033625;28;20174;-56
2023/07/01 03:05:35;;;;;;;13.93;9.57;;;23.50;51.50;;;;;;5033489;28;20261;-56
2023/07/01 03:08:01;;;;;;;14.17;10.30;;;23.50;51.50;;;;;;5033387;28;20944;-58
2023/07/01 03:10:27;;;;;;;10.63;9.67;;;23.40;51.40;;;;;;5033011;28;20432;-58
2023/07/01 03:12:54;;;;;;;15.63;11.17;;;23.50;51.50;;;;;;5033148;28;20916;-56
2023/07/01 03:15:19;;;;;;;15.40;9.70;;;23.40;51.60;;;;;;5033042;28;20454;-56
2023/07/01 03:17:47;;;;;;;12.67;10.50;;;23.40;51.60;;;;;;5033174;28;20396;-59
2023/07/01 03:20:22;;;;;;;10.00;8.67;;;23.40;51.50;;;;;;5032825;28;20248;-56
2023/07/01 03:22:52;;;;;;;18.30;10.73;;;23.40;51.40;;;;;;5033165;28;20485;-56
2023/07/01 03:25:18;;;;;;;12.43;10.40;;;23.40;51.30;;;;;;5032887;28;20815;-58
2023/07/01 03:27:45;;;;;;;13.10;10.03;;;23.40;51.40;;;;;;5032948;28;20409;-57
2023/07/01 03:30:15;;;;;;;12.33;11.10;;;23.40;51.50;;;;;;5032503;28;20965;-57
2023/07/01 03:32:41;;;;;;;13.33;11.07;;;23.40;51.50;;;;;;5032883;28;20408;-59
2023/07/01 03:35:09;;;;;;;15.50;12.40;;;23.40;51.60;;;;;;5032811;28;20948;-57
2023/07/01 03:37:36;;;;;;;13.60;10.30;;;23.40;51.60;;;;;;5032775;28;20912;-56
2023/07/01 03:40:03;;;;;;;13.23;11.57;;;23.40;51.60;;;;;;5032378;28;20430;-59
2023/07/01 03:42:29;;;;;;;15.93;12.23;;;23.40;51.50;;;;;;5032078;28;20412;-60
2023/07/01 03:44:54;;;;;;;12.43;10.73;;;23.40;51.50;;;;;;5032590;28;20760;-57
2023/07/01 03:47:21;;;;;;;24.10;11.97;;;23.40;51.50;;;;;;5033058;28;20416;-56
2023/07/01 03:49:47;;;;;;;17.77;10.90;;;23.40;51.60;;;;;;5031136;28;20728;-59
2023/07/01 03:52:13;;;;;;;12.03;10.77;;;23.40;51.40;;;;;;5032495;28;20410;-59
2023/07/01 03:54:38;;;;;;;17.60;11.40;;;23.40;51.40;;;;;;5032403;28;20455;-57
2023/07/01 03:57:04;;;;;;;18.70;11.67;;;23.30;51.60;;;;;;5032460;28;20712;-59
2023/07/01 03:59:30;;;;;;;15.10;11.20;;;23.30;51.70;;;;;;5032278;28;20178;-57
2023/07/01 04:01:56;;;;;;;16.60;10.83;;;23.30;51.60;;;;;;5032524;28;20397;-57
2023/07/01 04:04:21;;;;;;;11.60;10.40;;;23.30;51.70;;;;;;5032380;28;20704;-59
2023/07/01 04:06:47;;;;;;;16.93;10.07;;;23.20;51.40;;;;;;5032241;28;20166;-57
2023/07/01 04:09:13;;;;;;;12.27;10.97;;;23.30;51.80;;;;;;5032434;28;20541;-57
2023/07/01 04:11:40;;;;;;;14.57;10.93;;;23.20;51.90;;;;;;5032253;28;20422;-57
2023/07/01 04:14:05;;;;;;;16.00;11.87;;;23.30;52.00;;;;;;5032142;28;20201;-56
2023/07/01 04:16:32;;;;;;;19.33;11.20;;;23.20;51.70;;;;;;5032209;28;20496;-59
2023/07/01 04:18:59;;;;;;;14.23;10.70;;;23.30;51.80;;;;;;5032245;28;20178;-56
2023/07/01 04:21:25;;;;;;;15.80;10.47;;;23.30;51.70;;;;;;5031735;28;20456;-57
2023/07/01 04:23:51;;;;;;;13.53;10.47;;;23.30;51.80;;;;;;5032179;28;20487;-59
2023/07/01 04:26:18;;;;;;;12.97;11.00;;;23.30;51.80;;;;;;5032245;28;20899;-57
2023/07/01 04:28:43;;;;;;;17.50;12.00;;;23.40;51.80;;;;;;5032175;28;20413;-56
2023/07/01 04:31:09;;;;;;;13.30;11.60;;;23.40;51.80;;;;;;5031673;28;20952;-57
2023/07/01 04:33:35;;;;;;;16.53;11.20;;;23.40;51.70;;;;;;5032098;28;20178;-57
2023/07/01 04:36:01;;;;;;;13.33;11.93;;;23.40;51.50;;;;;;5031756;28;20682;-60
2023/07/01 04:38:26;;;;;;;13.63;11.40;;;23.40;51.30;;;;;;5032026;28;20166;-57
2023/07/01 04:40:53;;;;;;;17.27;11.53;;;23.40;51.00;;;;;;5031893;28;20189;-57
2023/07/01 04:43:20;;;;;;;14.13;11.73;;;23.40;50.80;;;;;;5031795;28;20174;-60
2023/07/01 04:45:46;;;;;;;12.77;11.23;;;23.40;50.30;;;;;;5031844;28;20405;-57
2023/07/01 04:48:12;;;;;;;14.70;11.83;;;23.30;50.40;;;;;;5031874;28;20480;-57
2023/07/01 04:50:37;;;;;;;17.70;11.60;;;23.30;50.70;;;;;;5031492;28;20213;-59
2023/07/01 04:53:03;;;;;;;13.33;11.83;;;23.30;50.90;;;;;;5033928;28;20416;-57
2023/07/01 04:55:29;;;;;;;14.27;12.87;;;23.30;51.00;;;;;;5035894;28;20888;-58
2023/07/01 04:57:55;;;;;;;15.63;13.90;;;23.30;50.30;;;;;;5035791;28;20432;-56
2023/07/01 05:00:21;;;;;;;14.13;12.63;;;23.40;50.20;;;;;;5035471;28;20186;-57
2023/07/01 05:02:47;;;;;;;11.80;10.60;;;23.30;49.90;;;;;;5035655;28;20638;-60
2023/07/01 05:05:13;;;;;;;12.67;11.13;;;23.30;49.90;;;;;;5035525;28;20855;-56
2023/07/01 05:07:39;;;;;;;15.63;11.67;;;23.20;50.00;;;;;;5035826;28;20970;-57
2023/07/01 05:10:05;;;;;;;12.97;11.57;;;23.20;50.10;;;;;;5035252;28;20474;-59
2023/07/01 05:12:31;;;;;;;22.27;11.17;;;23.30;50.00;;;;;;5035467;28;20178;-56
2023/07/01 05:14:57;;;;;;;12.30;10.93;;;23.20;49.90;;;;;;5035472;28;20452;-57
2023/07/01 05:17:22;;;;;;;13.03;10.27;;;23.20;50.00;;;;;;5035513;28;20189;-59
2023/07/01 05:19:48;;;;;;;13.70;10.30;;;23.20;50.10;;;;;;5033781;28;20209;-56
2023/07/01 05:22:14;;;;;;;13.13;10.73;;;23.10;49.60;;;;;;5035348;28;20253;-57
2023/07/01 05:24:39;;;;;;;18.73;10.17;;;23.10;49.60;;;;;;5035324;28;20170;-58
2023/07/01 05:27:05;;;;;;;11.17;10.00;;;23.10;50.00;;;;;;5035356;28;20323;-56
2023/07/01 05:29:31;;;;;;;12.30;11.10;;;23.20;50.00;;;;;;5034838;28;20453;-56
2023/07/01 05:31:57;;;;;;;15.87;11.23;;;23.20;50.10;;;;;;5035396;28;20166;-59
2023/07/01 05:34:24;;;;;;;10.87;9.17;;;23.30;50.10;;;;;;5035013;28;20657;-57
2023/07/01 05:36:50;;;;;;;13.77;10.40;;;23.40;49.70;;;;;;5035032;28;20404;-57
2023/07/01 05:39:17;;;;;;;10.40;9.40;;;23.40;48.90;;;;;;5035064;28;20408;-60
2023/07/01 05:41:43;;;;;;;9.80;8.50;;;23.50;49.00;;;;;;5034815;28;20928;-59
2023/07/01 05:44:10;;;;;;;10.07;8.60;;;23.50;48.10;;;;;;5034903;28;20397;-57
2023/07/01 05:46:36;;;;;;;10.57;8.80;;;23.50;48.00;;;;;;5034862;28;20417;-56
2023/07/01 05:49:02;;;;;;;11.20;8.07;;;23.50;48.30;;;;;;5034689;28;20435;-57
2023/07/01 05:51:27;;;;;;;13.23;8.77;;;23.60;48.00;;;;;;5034584;28;20247;-56
2023/07/01 05:53:53;;;;;;;12.53;8.40;;;23.60;47.50;;;;;;5034728;28;20244;-59
2023/07/01 05:56:19;;;;;;;9.63;8.03;;;23.70;47.70;;;;;;5034590;28;20205;-57
2023/07/01 05:58:46;;;;;;;9.20;6.53;;;23.60;47.70;;;;;;5034841;28;20198;-59
2023/07/01 06:01:11;;;;;;;10.70;7.90;;;23.60;47.50;;;;;;5034438;28;20189;-58
2023/07/01 06:03:37;;;;;;;10.27;7.70;;;23.60;47.10;;;;;;5033788;28;20416;-57
2023/07/01 06:06:03;;;;;;;8.60;7.80;;;23.70;46.80;;;;;;5034463;28;20743;-60
2023/07/01 06:08:28;;;;;;;8.73;6.40;;;23.70;46.10;;;;;;5034443;28;20209;-57
2023/07/01 06:10:54;;;;;;;11.70;7.37;;;23.80;46.40;;;;;;5034144;28;20190;-57
2023/07/01 06:13:20;;;;;;;7.30;6.23;;;23.80;46.20;;;;;;5034391;28;20178;-60
2023/07/01 06:15:46;;;;;;;10.70;6.40;;;23.90;45.70;;;;;;5034279;28;20212;-56
2023/07/01 06:18:11;;;;;;;7.40;5.53;;;23.90;45.70;;;;;;5034197;28;20177;-56
2023/07/01 06:20:37;;;;;;;6.77;5.47;;;24.10;45.50;;;;;;5034120;28;20194;-57
2023/07/01 06:23:03;;;;;;;9.23;5.07;;;24.10;44.80;;;;;;5034306;28;20221;-57
2023/07/01 06:25:28;;;;;;;9.70;5.90;;;24.10;44.50;;;;;;5034380;28;20232;-57
2023/07/01 06:27:54;;;;;;;10.00;4.97;;;24.20;44.10;;;;;;5034146;28;20574;-59
2023/07/01 06:30:20;;;;;;;6.73;5.30;;;24.20;42.80;;;;;;5033716;28;20211;-57
2023/07/01 06:32:46;;;;;;;6.23;5.53;;;24.20;43.00;;;;;;5033780;28;20585;-57
2023/07/01 06:35:11;;;;;;;7.13;4.70;;;24.30;43.90;;;;;;5034114;28;20197;-60
2023/07/01 06:37:37;;;;;;;21.03;5.20;;;24.30;43.00;;;;;;5034105;28;20488;-57
2023/07/01 06:40:03;;;;;;;9.40;4.40;;;24.50;43.00;;;;;;5033606;28;20673;-56
2023/07/01 06:42:29;;;;;;;7.93;4.73;;;24.50;42.80;;;;;;5033830;28;20181;-58
2023/07/01 06:44:55;;;;;;;8.13;5.30;;;24.60;42.10;;;;;;5033901;28;20491;-57
2023/07/01 06:47:20;;;;;;;6.50;3.57;;;24.60;41.80;;;;;;5033696;28;20228;-56
2023/07/01 06:49:47;;;;;;;5.00;4.43;;;24.70;41.80;;;;;;5033638;28;20735;-58
2023/07/01 06:52:12;;;;;;;9.40;4.80;;;24.60;41.00;;;;;;5033677;28;20186;-57
2023/07/01 06:54:38;;;;;;;6.63;4.43;;;24.70;41.40;;;;;;5033509;28;20408;-55
2023/07/01 06:57:04;;;;;;;5.87;4.63;;;24.70;41.90;;;;;;5033618;28;20170;-61
2023/07/01 06:59:30;;;;;;;5.10;4.30;;;24.80;41.50;;;;;;5033234;28;20527;-59
2023/07/01 07:01:55;;;;;;;4.43;3.57;;;24.80;40.80;;;;;;5033394;28;20851;-55
2023/07/01 07:04:21;;;;;;;8.90;4.20;;;24.80;39.40;;;;;;5033624;28;20166;-58
2023/07/01 07:06:47;;;;;;;9.10;4.83;;;24.90;40.30;;;;;;5033532;28;20178;-58
2023/07/01 07:09:12;;;;;;;7.23;3.60;;;24.90;39.50;;;;;;5033024;28;20174;-55
2023/07/01 07:11:38;;;;;;;6.57;3.17;;;24.90;39.50;;;;;;5033241;28;20224;-56
2023/07/01 07:14:04;;;;;;;8.70;4.10;;;24.90;39.60;;;;;;5033195;28;20178;-58
2023/07/01 07:16:33;;;;;;;8.10;3.23;;;25.00;39.30;;;;;;5032928;28;20509;-57
2023/07/01 07:18:59;;;;;;;13.23;3.60;;;25.10;38.60;;;;;;5033298;28;20177;-56
2023/07/01 07:21:25;;;;;;;4.80;3.40;;;25.10;38.50;;;;;;5032998;28;20492;-57
2023/07/01 07:23:50;;;;;;;3.43;2.93;;;25.20;38.60;;;;;;5033124;28;20642;-56
2023/07/01 07:26:16;;;;;;;6.33;3.60;;;25.20;37.70;;;;;;5033124;28;20182;-56
2023/07/01 07:28:42;;;;;;;9.67;3.30;;;25.30;38.00;;;;;;5033051;28;20174;-57
2023/07/01 07:31:07;;;;;;;5.97;3.30;;;25.30;36.00;;;;;;5032381;28;20213;-57
2023/07/01 07:33:33;;;;;;;4.40;2.53;;;25.30;37.20;;;;;;5033091;28;20201;-55
2023/07/01 07:35:59;;;;;;;2.70;2.37;;;25.30;36.60;;;;;;5032933;28;20585;-55
2023/07/01 07:38:25;;;;;;;5.60;2.87;;;25.30;35.70;;;;;;5032810;28;20177;-56
2023/07/01 07:40:50;;;;;;;3.87;2.80;;;25.30;35.60;;;;;;5032556;28;20193;-58
2023/07/01 07:43:16;;;;;;;5.30;3.27;;;25.40;35.90;;;;;;5031563;28;20166;-61
2023/07/01 07:45:42;;;;;;;3.40;2.70;;;25.40;36.20;;;;;;5032632;28;20189;-56
2023/07/01 07:48:08;;;;;;;4.40;3.17;;;25.50;36.60;;;;;;5032613;28;20405;-58
2023/07/01 07:50:35;;;;;;;7.63;3.43;;;25.60;38.00;;;;;;5032432;28;20198;-55
2023/07/01 07:53:03;;;;;;;8.73;3.10;;;25.70;36.20;;;;;;5032596;28;20184;-56
2023/07/01 07:55:33;;;;;;;6.80;2.87;;;25.80;36.50;;;;;;5032482;28;20479;-55
2023/07/01 07:58:02;;;;;;;7.93;2.63;;;25.90;36.40;;;;;;5031142;28;20423;-56
2023/07/01 08:00:28;;;;;;;5.27;2.77;;;25.90;35.40;;;;;;5032095;28;20444;-57
2023/07/01 08:02:54;;;;;;;6.53;2.97;;;26.00;35.80;;;;;;5032638;28;20425;-57
2023/07/01 08:05:21;;;;;;;4.70;2.90;;;26.00;35.60;;;;;;5032369;28;20924;-55
2023/07/01 08:07:47;;;;;;;3.63;2.30;;;26.10;36.60;;;;;;5032328;28;20459;-58
2023/07/01 08:10:14;;;;;;;5.07;3.00;;;26.20;35.40;;;;;;5032426;28;20427;-55
2023/07/01 08:12:40;;;;;;;7.33;2.80;;;26.20;33.50;;;;;;5032154;28;20896;-54
2023/07/01 08:15:07;;;;;;;4.40;3.10;;;26.30;35.90;;;;;;5032468;28;20460;-57
2023/07/01 08:17:32;;;;;;;5.33;2.63;;;26.40;34.80;;;;;;5032099;28;20908;-56
2023/07/01 08:19:58;;;;;;;6.90;2.30;;;26.50;35.00;;;;;;5031904;28;20413;-56
2023/07/01 08:22:24;;;;;;;4.50;2.33;;;26.50;32.80;;;;;;5032143;28;20170;-57
2023/07/01 08:24:50;;;;;;;5.10;3.40;;;26.50;33.90;;;;;;5032070;28;20969;-55
2023/07/01 08:27:16;;;;;;;4.90;2.60;;;26.50;34.00;;;;;;5031577;28;20253;-56
2023/07/01 08:29:41;;;;;;;4.07;2.50;;;26.50;32.60;;;;;;5031651;28;20203;-57
2023/07/01 08:32:07;;;;;;;3.33;2.20;;;26.40;33.30;;;;;;5032205;28;20169;-56
2023/07/01 08:34:35;;;;;;;7.57;3.00;;;26.40;32.90;;;;;;5031865;28;20202;-56
2023/07/01 08:37:01;;;;;;;7.60;2.70;;;26.40;33.50;;;;;;5031979;28;20419;-55
2023/07/01 08:39:27;;;;;;;3.30;2.50;;;26.50;33.60;;;;;;5031802;28;20483;-55
2023/07/01 08:42:04;;;;;;;8.13;2.87;;;26.50;33.20;;;;;;5032214;28;20479;-55
2023/07/01 08:44:30;;;;;;;3.97;2.53;;;26.70;33.50;;;;;;5032121;28;20416;-54
2023/07/01 08:46:56;;;;;;;11.00;2.23;;;26.80;31.40;;;;;;5032200;28;20408;-55
2023/07/01 08:49:23;;;;;;;5.10;2.70;;;26.80;31.50;;;;;;5031729;28;20412;-59
2023/07/01 08:51:57;;;;;;;7.13;2.20;;;26.90;32.40;;;;;;5031869;28;20432;-56
2023/07/01 08:54:24;;;;;;;4.60;2.83;;;27.00;31.10;;;;;;5031723;28;20411;-56
2023/07/01 08:56:50;;;;;;;3.17;2.77;;;27.10;31.00;;;;;;5031741;28;20462;-58
2023/07/01 08:59:16;;;;;;;6.30;2.40;;;27.10;31.80;;;;;;5031730;28;20409;-54
2023/07/01 09:01:45;;;;;;;5.97;3.10;;;27.10;31.80;;;;;;5031876;28;20447;-58
2023/07/01 09:04:11;;;;;;;4.03;3.17;;;27.00;31.10;;;;;;5032140;28;20934;-56
2023/07/01 09:06:38;;;;;;;3.97;3.00;;;27.00;31.10;;;;;;5031639;28;20413;-56
2023/07/01 09:09:04;;;;;;;5.00;2.50;;;27.00;30.40;;;;;;5031518;28;20451;-55
2023/07/01 09:11:30;;;;;;;4.70;2.93;;;27.00;30.80;;;;;;5031746;28;20455;-57
2023/07/01 09:13:56;;;;;;;4.10;2.47;;;27.10;31.50;;;;;;5031785;28;20419;-54
2023/07/01 09:16:35;;;;;;;8.23;3.03;;;27.10;31.80;;;;;;5031540;28;20456;-54
2023/07/01 09:19:10;;;;;;;9.83;3.60;;;27.30;30.90;;;;;;5031623;28;20393;-55
2023/07/01 09:21:37;;;;;;;3.60;3.00;;;27.40;29.40;;;;;;5031320;28;20456;-58
2023/07/01 09:24:06;;;;;;;6.37;4.07;;;27.30;28.40;;;;;;5031558;28;20405;-58
2023/07/01 09:26:32;;;;;;;6.20;2.77;;;27.30;30.00;;;;;;5031771;28;20432;-55
2023/07/01 09:28:59;;;;;;;7.13;2.70;;;27.50;31.20;;;;;;5031623;28;20471;-55
2023/07/01 09:31:28;;;;;;;4.13;2.77;;;27.50;29.90;;;;;;5031143;28;20455;-58
2023/07/01 09:33:57;;;;;;;4.17;3.03;;;27.60;30.10;;;;;;5031432;28;20807;-54
2023/07/01 09:36:26;;;;;;;3.13;2.70;;;27.70;28.60;;;;;;5031572;28;20455;-56
2023/07/01 09:38:53;;;;;;;3.67;3.27;;;27.70;29.20;;;;;;5031633;28;20436;-57
2023/07/01 09:41:26;;;;;;;4.30;2.87;;;27.80;30.40;;;;;;5034705;28;20514;-56
2023/07/01 09:43:57;;;;;;;3.90;3.10;;;27.90;30.80;;;;;;5035181;28;20409;-54
2023/07/01 09:46:24;;;;;;;6.93;2.87;;;28.00;29.60;;;;;;5034861;28;20420;-57
2023/07/01 09:48:52;;;;;;;5.83;2.90;;;28.10;29.50;;;;;;5035094;28;20415;-57
2023/07/01 09:51:18;;;;;;;5.77;2.97;;;28.10;28.70;;;;;;5034524;28;20959;-57
2023/07/01 09:53:44;;;;;;;4.07;2.87;;;28.10;29.30;;;;;;5034954;28;20413;-56
2023/07/01 09:56:12;;;;;;;4.67;2.80;;;28.10;30.30;;;;;;5034639;28;20457;-55
2023/07/01 09:58:39;;;;;;;4.60;2.83;;;28.10;29.30;;;;;;5034670;28;20415;-54
2023/07/01 10:01:05;;;;;;;7.40;2.70;;;28.10;29.50;;;;;;5034387;28;20433;-58
2023/07/01 10:03:31;;;;;;;3.73;3.20;;;28.10;29.20;;;;;;5034495;28;20773;-56
2023/07/01 10:05:57;;;;;;;3.40;2.80;;;28.20;29.30;;;;;;5034491;28;20968;-55
2023/07/01 10:08:23;;;;;;;5.53;3.33;;;28.30;29.40;;;;;;5034522;28;20444;-57
2023/07/01 10:11:21;;;;;;;4.37;3.03;;;28.40;30.80;;;;;;5034107;28;20197;-57
2023/07/01 10:13:51;;;;;;;7.30;2.90;;;28.50;29.40;;;;;;5033768;28;20190;-55
2023/07/01 10:16:18;;;;;;;4.33;2.97;;;28.50;29.70;;;;;;5034187;28;20491;-57
2023/07/01 10:18:44;;;;;;;7.03;3.80;;;28.60;30.60;;;;;;5034260;28;20408;-56
2023/07/01 10:21:32;;;;;;;5.23;3.33;;;28.70;28.30;;;;;;5033967;28;20425;-56
2023/07/01 10:24:01;;;;;;;3.10;2.20;;;28.80;29.00;;;;;;5034082;28;20820;-54
2023/07/01 10:26:56;;;;;;;4.43;2.70;;;28.80;28.90;;;;;;5034386;28;20455;-55
2023/07/01 10:29:31;;;;;;;6.00;2.97;;;28.80;28.60;;;;;;5033258;28;20482;-55
2023/07/01 10:32:25;;;;;;;5.10;3.37;;;28.90;28.00;;;;;;5034016;28;20420;-54
2023/07/01 10:35:01;;;;;;;7.20;3.10;;;28.90;28.90;;;;;;5033468;28;20421;-54
2023/07/01 10:37:28;;;;;;;4.67;3.30;;;28.90;28.30;;;;;;5033997;28;20761;-58
2023/07/01 10:39:56;;;;;;;5.00;3.20;;;29.00;27.90;;;;;;5033603;28;20429;-54
2023/07/01 10:42:33;;;;;;;5.07;3.10;;;29.00;29.30;;;;;;5033891;28;20401;-55
2023/07/01 10:45:13;;;;;;;7.50;3.17;;;29.10;29.10;;;;;;5033802;28;20416;-55
2023/07/01 10:47:48;;;;;;;3.60;2.83;;;29.20;29.50;;;;;;5033781;28;20489;-54
2023/07/01 10:50:17;;;;;;;4.87;3.10;;;29.00;28.40;;;;;;5033164;28;20425;-54
2023/07/01 10:52:58;;;;;;;6.07;2.87;;;29.00;29.80;;;;;;5033770;28;20408;-58
2023/07/01 10:55:46;;;;;;;4.17;2.97;;;29.00;27.00;;;;;;5033332;28;20808;-55
2023/07/01 10:58:18;;;;;;;5.70;2.80;;;29.00;28.20;;;;;;5033823;28;20626;-55
2023/07/01 11:00:45;;;;;;;5.33;3.30;;;29.10;28.90;;;;;;5033089;28;20448;-57
2023/07/01 11:03:35;;;;;;;4.40;3.10;;;29.20;29.50;;;;;;5033396;28;20405;-54
2023/07/01 11:06:05;;;;;;;3.90;3.20;;;29.40;29.00;;;;;;5033455;28;20905;-57
2023/07/01 11:08:50;;;;;;;4.00;3.53;;;29.50;26.30;;;;;;5033548;28;20463;-56
2023/07/01 11:11:22;;;;;;;3.33;2.60;;;29.60;27.00;;;;;;5033241;28;20417;-54
2023/07/01 11:13:59;;;;;;;4.20;2.80;;;29.60;28.70;;;;;;5033401;28;20409;-56
2023/07/01 11:16:26;;;;;;;4.60;3.40;;;29.70;26.10;;;;;;5033499;28;20542;-56
2023/07/01 11:18:53;;;;;;;6.23;3.13;;;29.70;26.70;;;;;;5033204;28;20413;-56
2023/07/01 11:21:21;;;;;;;5.10;3.60;;;29.70;26.90;;;;;;5033182;28;20463;-58
2023/07/01 11:24:03;;;;;;;4.90;3.07;;;29.90;27.30;;;;;;5033519;28;20562;-56
2023/07/01 11:26:30;;;;;;;7.50;3.73;;;30.00;27.00;;;;;;5033173;28;20409;-58
2023/07/01 11:28:56;;;;;;;7.30;3.07;;;30.10;25.80;;;;;;5033100;28;20900;-57
2023/07/01 11:31:26;;;;;;;4.40;2.90;;;30.10;25.90;;;;;;5032849;28;20456;-55
2023/07/01 11:33:54;;;;;;;5.53;3.20;;;30.00;24.60;;;;;;5033233;28;20459;-57
2023/07/01 11:36:44;;;;;;;4.80;3.73;;;29.90;25.30;;;;;;5033012;28;20457;-57
2023/07/01 11:39:13;;;;;;;7.33;3.33;;;30.00;26.60;;;;;;5032747;28;20440;-55
2023/07/01 11:41:41;;;;;;;4.87;3.27;;;30.00;26.70;;;;;;5032807;28;20441;-58
2023/07/01 11:44:11;;;;;;;9.53;4.40;;;30.10;26.40;;;;;;5032939;28;20412;-58
2023/07/01 11:46:40;;;;;;;5.27;3.80;;;30.30;26.10;;;;;;5032751;28;20905;-55
2023/07/01 11:49:26;;;;;;;6.00;4.43;;;30.40;24.60;;;;;;5032766;28;20489;-57
2023/07/01 11:51:57;;;;;;;5.83;4.17;;;30.40;24.90;;;;;;5032732;28;20474;-55
2023/07/01 11:54:44;;;;;;;4.17;3.30;;;30.30;25.20;;;;;;5032715;28;20427;-55
2023/07/01 11:57:15;;;;;;;5.20;3.03;;;30.10;25.10;;;;;;5032421;28;20514;-57
2023/07/01 11:59:42;;;;;;;5.20;4.17;;;30.10;25.80;;;;;;5032244;28;20404;-57
2023/07/01 12:02:09;;;;;;;8.07;3.93;;;30.10;24.50;;;;;;5031851;28;20412;-55
2023/07/01 12:04:36;;;;;;;4.40;3.13;;;30.10;25.50;;;;;;5032626;28;20500;-57
2023/07/01 12:07:15;;;;;;;5.40;3.80;;;30.00;26.00;;;;;;5032372;28;20400;-55
2023/07/01 12:09:42;;;;;;;6.57;3.70;;;30.10;26.00;;;;;;5032221;28;20410;-57
2023/07/01 12:12:34;;;;;;;5.10;3.90;;;30.10;26.20;;;;;;5032418;28;20935;-57
2023/07/01 12:15:11;;;;;;;5.07;4.17;;;30.20;27.60;;;;;;5032483;28;20790;-55
2023/07/01 12:17:37;;;;;;;6.60;3.90;;;30.30;25.70;;;;;;5032460;28;20459;-56
2023/07/01 12:20:07;;;;;;;8.63;3.80;;;30.50;23.20;;;;;;5032114;28;20412;-56
2023/07/01 12:22:33;;;;;;;5.70;4.60;;;30.60;25.80;;;;;;5032110;28;20411;-54
2023/07/01 12:24:59;;;;;;;7.03;4.83;;;30.80;25.00;;;;;;5032082;28;20400;-54
2023/07/01 12:27:25;;;;;;;10.40;4.90;;;30.80;23.30;;;;;;5032415;28;20488;-56
2023/07/01 12:29:51;;;;;;;6.40;4.40;;;30.80;22.40;;;;;;5031512;28;20540;-54
2023/07/01 12:32:18;;;;;;;6.60;4.40;;;30.80;21.30;;;;;;5032167;28;20193;-56
2023/07/01 12:34:43;;;;;;;7.17;5.17;;;30.70;23.90;;;;;;5031811;28;20411;-57
2023/07/01 12:37:11;;;;;;;4.83;4.27;;;30.70;23.70;;;;;;5032007;28;20441;-55
2023/07/01 12:39:37;;;;;;;7.97;4.33;;;30.70;25.50;;;;;;5031630;28;20453;-54
2023/07/01 12:42:04;;;;;;;5.93;5.10;;;30.60;24.30;;;;;;5032181;28;20935;-54